createdAt,value
2018-01-13T00:01:27.067Z,91.40
2018-01-13T00:06:28.478Z,90.90
2018-01-13T00:11:29.716Z,91.30
2018-01-13T00:16:31.302Z,90.90
2018-01-13T00:21:34.554Z,90.70
2018-01-13T00:26:35.610Z,91.00
2018-01-13T00:31:37.478Z,91.90
2018-01-13T00:36:39.069Z,91.80
2018-01-13T00:41:40.414Z,90.50
2018-01-13T00:46:41.657Z,90.70
2018-01-13T00:51:43.001Z,89.70
2018-01-13T00:56:44.306Z,90.10
2018-01-13T01:01:45.558Z,90.20
2018-01-13T01:06:46.801Z,89.90
2018-01-13T01:11:48.036Z,91.10
2018-01-13T01:16:50.411Z,90.20
2018-01-13T01:21:55.946Z,90.90
2018-01-13T01:26:58.260Z,90.90
2018-01-13T01:32:00.446Z,89.70
2018-01-13T01:37:02.183Z,88.90
2018-01-13T01:42:03.520Z,89.40
2018-01-13T01:47:05.771Z,89.70
2018-01-13T01:52:07.697Z,91.00
2018-01-13T01:57:10.748Z,90.90
2018-01-13T02:02:12.374Z,90.40
2018-01-13T02:07:13.559Z,90.60
2018-01-13T02:12:14.962Z,88.90
2018-01-13T02:17:16.355Z,88.20
2018-01-13T02:22:18.644Z,89.80
2018-01-13T02:27:20.078Z,89.80
2018-01-13T02:32:21.206Z,90.30
2018-01-13T02:37:22.349Z,90.50
2018-01-13T02:42:23.811Z,91.10
2018-01-13T02:47:24.931Z,91.20
2018-01-13T02:52:26.256Z,91.30
2018-01-13T02:57:27.809Z,91.40
2018-01-13T03:02:29.196Z,91.60
2018-01-13T03:07:30.594Z,90.20
2018-01-13T03:12:32.605Z,90.20
2018-01-13T03:17:34.146Z,89.20
2018-01-13T03:22:36.504Z,89.10
2018-01-13T03:27:38.911Z,88.00
2018-01-13T03:32:40.790Z,87.80
2018-01-13T03:37:42.793Z,87.70
2018-01-13T03:42:44.446Z,87.60
2018-01-13T03:47:45.808Z,87.90
2018-01-13T03:52:48.037Z,88.10
2018-01-13T03:57:49.290Z,89.30
2018-01-13T04:02:50.820Z,87.00
2018-01-13T04:07:52.176Z,89.50
2018-01-13T04:12:53.697Z,89.40
2018-01-13T04:17:55.009Z,90.60
2018-01-13T04:22:56.864Z,90.90
2018-01-13T04:27:59.174Z,88.70
2018-01-13T04:33:00.515Z,88.90
2018-01-13T04:38:03.124Z,88.80
2018-01-13T04:43:04.368Z,88.60
2018-01-13T04:48:05.819Z,87.90
2018-01-13T04:53:06.954Z,87.50
2018-01-13T04:58:08.895Z,89.30
2018-01-13T05:03:10.034Z,89.30
2018-01-13T05:08:11.300Z,88.50
2018-01-13T05:13:12.572Z,89.60
2018-01-13T05:18:13.639Z,89.50
2018-01-13T05:23:15.609Z,89.40
2018-01-13T05:28:18.128Z,89.30
2018-01-13T05:33:19.229Z,88.10
2018-01-13T05:38:20.553Z,87.30
2018-01-13T05:43:21.766Z,88.90
2018-01-13T05:48:23.209Z,87.40
2018-01-13T05:53:24.712Z,87.20
2018-01-13T05:58:26.164Z,87.60
2018-01-13T06:03:27.363Z,87.10
2018-01-13T06:08:28.905Z,86.30
2018-01-13T06:13:30.378Z,88.10
2018-01-13T06:18:32.273Z,86.60
2018-01-13T06:23:33.875Z,86.50
2018-01-13T06:28:35.784Z,87.20
2018-01-13T06:33:37.162Z,87.10
2018-01-13T06:38:38.516Z,86.10
2018-01-13T06:43:39.658Z,84.70
2018-01-13T06:48:41.952Z,84.00
2018-01-13T06:53:43.170Z,84.00
2018-01-13T06:58:44.559Z,83.90
2018-01-13T07:03:45.811Z,86.30
2018-01-13T07:08:46.974Z,88.40
2018-01-13T07:13:48.195Z,86.70
2018-01-13T07:18:49.528Z,87.90
2018-01-13T07:23:51.799Z,87.40
2018-01-13T07:28:53.678Z,90.30
2018-01-13T07:33:55.712Z,91.50
2018-01-13T07:38:57.701Z,90.70
2018-01-13T07:43:59.158Z,89.90
2018-01-13T07:49:00.546Z,91.30
2018-01-13T07:54:08.780Z,91.10
2018-01-13T07:59:10.019Z,88.60
2018-01-13T08:04:11.319Z,90.40
2018-01-13T08:09:12.537Z,89.90
2018-01-13T08:14:13.714Z,88.30
2018-01-13T08:19:16.543Z,90.10
2018-01-13T08:24:17.955Z,90.10
2018-01-13T08:29:19.372Z,88.60
2018-01-13T08:34:20.722Z,89.00
2018-01-13T08:39:22.082Z,88.50
2018-01-13T08:44:24.073Z,89.70
2018-01-13T08:49:25.427Z,89.80
2018-01-13T08:54:26.608Z,90.30
2018-01-13T08:59:27.897Z,88.60
2018-01-13T09:04:29.436Z,88.70
2018-01-13T09:09:31.171Z,84.40
2018-01-13T09:14:32.526Z,81.80
2018-01-13T09:19:34.378Z,83.10
2018-01-13T09:24:35.562Z,80.30
2018-01-13T09:29:37.081Z,77.20
2018-01-13T09:34:39.156Z,73.30
2018-01-13T09:39:40.424Z,73.00
2018-01-13T09:44:41.711Z,68.50
2018-01-13T09:49:44.270Z,66.90
2018-01-13T09:54:51.887Z,68.00
2018-01-13T09:59:53.112Z,68.50
2018-01-13T10:04:54.342Z,67.50
2018-01-13T10:09:55.350Z,67.70
2018-01-13T10:14:56.380Z,59.90
2018-01-13T10:19:57.390Z,60.10
2018-01-13T10:24:58.394Z,54.50
2018-01-13T10:29:59.386Z,53.00
2018-01-13T10:35:00.401Z,53.40
2018-01-13T10:40:01.414Z,54.20
2018-01-13T10:45:09.771Z,56.40
2018-01-13T10:50:10.795Z,56.40
2018-01-13T10:55:12.866Z,56.70
2018-01-13T11:00:13.891Z,56.60
2018-01-13T11:05:15.186Z,58.00
2018-01-13T11:10:16.358Z,59.90
2018-01-13T11:15:17.630Z,59.60
2018-01-13T11:20:19.128Z,60.30
2018-01-13T11:25:20.629Z,60.40
2018-01-13T11:30:28.642Z,60.00
2018-01-13T11:35:29.870Z,60.60
2018-01-13T11:40:31.806Z,60.10
2018-01-13T11:45:33.922Z,59.10
2018-01-13T11:50:35.654Z,59.60
2018-01-13T11:55:36.931Z,59.10
2018-01-13T12:00:38.168Z,59.70
2018-01-13T12:05:40.277Z,60.30
2018-01-13T12:10:43.002Z,60.10
2018-01-13T12:15:44.203Z,60.00
2018-01-13T12:20:45.497Z,59.70
2018-01-13T12:25:46.754Z,60.40
2018-01-13T12:30:48.529Z,60.70
2018-01-13T12:35:50.606Z,60.40
2018-01-13T12:40:51.879Z,60.40
2018-01-13T12:45:53.459Z,59.70
2018-01-13T12:50:54.702Z,60.60
2018-01-13T12:55:55.698Z,60.90
2018-01-13T13:00:56.691Z,60.70
2018-01-13T13:05:57.694Z,61.70
2018-01-13T13:10:59.432Z,61.20
2018-01-13T13:16:00.435Z,61.10
2018-01-13T13:21:01.432Z,61.50
2018-01-13T13:26:02.908Z,61.40
2018-01-13T13:31:04.395Z,61.50
2018-01-13T13:36:06.286Z,62.10
2018-01-13T13:41:07.835Z,62.10
2018-01-13T13:46:09.114Z,61.10
2018-01-13T13:51:11.203Z,62.20
2018-01-13T13:56:13.363Z,62.20
2018-01-13T14:01:28.507Z,62.60
2018-01-13T14:06:19.875Z,62.40
2018-01-13T14:11:21.134Z,62.90
2018-01-13T14:16:22.446Z,63.70
2018-01-13T14:21:23.605Z,63.10
2018-01-13T14:26:25.862Z,63.90
2018-01-13T14:31:27.471Z,64.00
2018-01-13T14:36:29.428Z,74.00
2018-01-13T14:41:31.333Z,59.50
2018-01-13T14:46:32.650Z,59.50
2018-01-13T14:51:34.245Z,63.70
2018-01-13T14:56:35.452Z,65.60
2018-01-13T15:01:36.827Z,65.60
2018-01-13T15:06:38.085Z,65.80
2018-01-13T15:11:39.809Z,66.50
2018-01-13T15:16:41.211Z,67.10
2018-01-13T15:21:43.433Z,67.70
2018-01-13T15:26:44.736Z,68.40
2018-01-13T15:31:46.103Z,68.50
2018-01-13T15:36:47.503Z,68.80
2018-01-13T15:41:49.757Z,69.70
2018-01-13T15:46:51.097Z,69.60
2018-01-13T15:51:53.352Z,69.50
2018-01-13T15:56:54.910Z,69.30
2018-01-13T16:01:56.346Z,70.30
2018-01-13T16:06:57.644Z,69.70
2018-01-13T16:11:59.104Z,70.40
2018-01-13T16:17:01.255Z,71.20
2018-01-13T16:22:03.459Z,71.10
2018-01-13T16:27:04.855Z,71.00
2018-01-13T16:32:06.604Z,71.60
2018-01-13T16:37:07.807Z,72.00
2018-01-13T16:42:09.086Z,71.70
2018-01-13T16:47:10.506Z,71.70
2018-01-13T16:52:12.336Z,72.10
2018-01-13T16:57:14.398Z,72.10
2018-01-13T17:02:15.664Z,72.10
2018-01-13T17:07:17.067Z,72.50
2018-01-13T17:12:18.328Z,73.20
2018-01-13T17:17:19.838Z,73.60
2018-01-13T17:22:21.216Z,73.40
2018-01-13T17:27:25.300Z,73.20
2018-01-13T17:32:26.556Z,73.30
2018-01-13T17:37:27.800Z,73.30
2018-01-13T17:42:29.627Z,73.90
2018-01-13T17:47:31.465Z,73.50
2018-01-13T17:52:32.701Z,73.50
2018-01-13T17:57:33.694Z,73.80
2018-01-13T18:02:35.439Z,74.00
2018-01-13T18:07:36.766Z,74.00
2018-01-13T18:12:37.848Z,74.10
2018-01-13T18:17:39.008Z,74.00
2018-01-13T18:22:40.398Z,74.30
2018-01-13T18:27:41.645Z,73.60
2018-01-13T18:32:42.719Z,74.40
2018-01-13T18:37:44.764Z,73.70
2018-01-13T18:42:46.239Z,73.50
2018-01-13T18:47:47.296Z,73.80
2018-01-13T18:52:48.654Z,73.90
2018-01-13T18:57:50.604Z,73.50
2018-01-13T19:02:52.521Z,73.10
2018-01-13T19:07:53.751Z,73.10
2018-01-13T19:12:54.754Z,73.50
2018-01-13T19:17:56.026Z,72.60
2018-01-13T19:22:57.051Z,73.70
2018-01-13T19:27:59.018Z,72.50
2018-01-13T19:33:00.037Z,72.50
2018-01-13T19:38:01.775Z,72.00
2018-01-13T19:43:03.588Z,71.40
2018-01-13T19:48:05.126Z,72.20
2018-01-13T19:53:07.439Z,71.20
2018-01-13T19:58:08.586Z,71.10
2018-01-13T20:03:09.635Z,71.20
2018-01-13T20:08:11.955Z,71.60
2018-01-13T20:13:13.044Z,71.60
2018-01-13T20:18:14.443Z,71.10
2018-01-13T20:23:16.425Z,70.40
2018-01-13T20:28:17.499Z,70.40
2018-01-13T20:33:18.571Z,70.50
2018-01-13T20:38:19.814Z,70.60
2018-01-13T20:43:22.150Z,71.40
2018-01-13T20:48:23.684Z,71.40
2018-01-13T20:53:25.466Z,70.00
2018-01-13T20:58:26.986Z,69.80
2018-01-13T21:03:28.327Z,70.90
2018-01-13T21:08:29.876Z,70.20
2018-01-13T21:13:31.275Z,70.10
2018-01-13T21:18:32.588Z,70.90
2018-01-13T21:23:35.274Z,72.20
2018-01-13T21:28:36.664Z,71.60
2018-01-13T21:33:38.694Z,70.70
2018-01-13T21:38:39.904Z,70.60
2018-01-13T21:43:41.307Z,71.20
2018-01-13T21:48:43.404Z,70.60
2018-01-13T21:53:45.467Z,71.00
2018-01-13T21:58:46.850Z,71.00
2018-01-13T22:03:47.923Z,71.00
2018-01-13T22:08:49.298Z,71.00
2018-01-13T22:13:50.306Z,71.20
2018-01-13T22:18:51.361Z,71.10
2018-01-13T22:23:52.378Z,71.40
2018-01-13T22:28:53.387Z,71.40
2018-01-13T22:33:54.394Z,71.70
2018-01-13T22:38:56.391Z,71.90
2018-01-13T22:43:58.151Z,72.10
2018-01-13T22:48:59.363Z,71.90
2018-01-13T22:54:02.955Z,72.50
2018-01-13T22:59:04.367Z,72.40
2018-01-13T23:04:05.454Z,72.60
2018-01-13T23:09:06.515Z,73.00
2018-01-13T23:14:07.550Z,73.20
2018-01-13T23:19:08.839Z,73.20
2018-01-13T23:24:09.854Z,73.50
2018-01-13T23:29:11.827Z,73.60
2018-01-13T23:34:12.860Z,73.70
2018-01-13T23:39:13.867Z,73.90
2018-01-13T23:44:14.931Z,74.30
2018-01-13T23:49:15.978Z,74.10
2018-01-13T23:54:17.247Z,74.10
2018-01-13T23:59:18.306Z,74.50
